sensor_id;sensor_type;location;lat;lon;timestamp;P1;durP1;ratioP1;P2;durP2;ratioP2
24547;SDS011;12713;51.624;4.924;2022-09-14T00:01:21;8.90;;;3.50;;
24547;SDS011;12713;51.624;4.924;2022-09-14T00:03:50;13.02;;;3.88;;
24547;SDS011;12713;51.624;4.924;2022-09-14T00:06:16;8.50;;;3.28;;
24547;SDS011;12713;51.624;4.924;2022-09-14T00:08:42;9.52;;;3.95;;
24547;SDS011;12713;51.624;4.924;2022-09-14T00:11:10;9.95;;;3.40;;
24547;SDS011;12713;51.624;4.924;2022-09-14T00:13:36;7.82;;;3.83;;
24547;SDS011;12713;51.624;4.924;2022-09-14T00:16:04;9.77;;;4.60;;
24547;SDS011;12713;51.624;4.924;2022-09-14T00:18:30;10.15;;;4.53;;
24547;SDS011;12713;51.624;4.924;2022-09-14T00:21:00;9.98;;;3.92;;
24547;SDS011;12713;51.624;4.924;2022-09-14T00:23:27;7.93;;;3.95;;
24547;SDS011;12713;51.624;4.924;2022-09-14T00:25:53;8.27;;;3.40;;
24547;SDS011;12713;51.624;4.924;2022-09-14T00:28:19;8.60;;;4.32;;
24547;SDS011;12713;51.624;4.924;2022-09-14T00:30:45;9.52;;;4.10;;
24547;SDS011;12713;51.624;4.924;2022-09-14T00:33:11;7.00;;;3.95;;
24547;SDS011;12713;51.624;4.924;2022-09-14T00:35:37;14.80;;;4.90;;
24547;SDS011;12713;51.624;4.924;2022-09-14T00:38:04;10.75;;;3.63;;
24547;SDS011;12713;51.624;4.924;2022-09-14T00:40:31;10.80;;;3.85;;
24547;SDS011;12713;51.624;4.924;2022-09-14T00:42:57;6.28;;;3.25;;
24547;SDS011;12713;51.624;4.924;2022-09-14T00:45:23;7.80;;;3.67;;
24547;SDS011;12713;51.624;4.924;2022-09-14T00:47:50;12.93;;;4.22;;
24547;SDS011;12713;51.624;4.924;2022-09-14T00:50:18;9.10;;;3.60;;
24547;SDS011;12713;51.624;4.924;2022-09-14T00:52:44;7.28;;;3.30;;
24547;SDS011;12713;51.624;4.924;2022-09-14T00:55:12;7.22;;;3.33;;
24547;SDS011;12713;51.624;4.924;2022-09-14T00:57:40;7.05;;;3.40;;
24547;SDS011;12713;51.624;4.924;2022-09-14T01:00:07;17.90;;;3.60;;
24547;SDS011;12713;51.624;4.924;2022-09-14T01:02:35;7.70;;;3.58;;
24547;SDS011;12713;51.624;4.924;2022-09-14T01:05:01;8.55;;;3.65;;
24547;SDS011;12713;51.624;4.924;2022-09-14T01:10:07;7.63;;;3.00;;
24547;SDS011;12713;51.624;4.924;2022-09-14T01:20:28;12.65;;;3.53;;
24547;SDS011;12713;51.624;4.924;2022-09-14T01:22:59;8.45;;;3.60;;
24547;SDS011;12713;51.624;4.924;2022-09-14T01:28:09;5.88;;;2.65;;
24547;SDS011;12713;51.624;4.924;2022-09-14T01:30:36;9.65;;;3.38;;
24547;SDS011;12713;51.624;4.924;2022-09-14T01:35:36;6.07;;;3.33;;
24547;SDS011;12713;51.624;4.924;2022-09-14T01:42:58;7.15;;;3.47;;
24547;SDS011;12713;51.624;4.924;2022-09-14T01:45:26;6.90;;;3.10;;
24547;SDS011;12713;51.624;4.924;2022-09-14T01:47:53;9.98;;;3.40;;
24547;SDS011;12713;51.624;4.924;2022-09-14T01:50:39;8.18;;;3.25;;
24547;SDS011;12713;51.624;4.924;2022-09-14T01:53:08;8.60;;;4.32;;
24547;SDS011;12713;51.624;4.924;2022-09-14T01:55:38;10.60;;;3.90;;
24547;SDS011;12713;51.624;4.924;2022-09-14T01:58:11;8.93;;;3.42;;
24547;SDS011;12713;51.624;4.924;2022-09-14T02:00:40;5.45;;;2.83;;
24547;SDS011;12713;51.624;4.924;2022-09-14T02:03:20;7.97;;;3.80;;
24547;SDS011;12713;51.624;4.924;2022-09-14T02:06:09;7.60;;;3.28;;
24547;SDS011;12713;51.624;4.924;2022-09-14T02:08:33;7.80;;;3.03;;
24547;SDS011;12713;51.624;4.924;2022-09-14T02:10:59;9.20;;;3.10;;
24547;SDS011;12713;51.624;4.924;2022-09-14T02:13:25;5.00;;;2.13;;
24547;SDS011;12713;51.624;4.924;2022-09-14T02:15:51;7.68;;;2.95;;
24547;SDS011;12713;51.624;4.924;2022-09-14T02:18:18;9.30;;;2.90;;
24547;SDS011;12713;51.624;4.924;2022-09-14T02:20:54;10.85;;;3.40;;
24547;SDS011;12713;51.624;4.924;2022-09-14T02:23:21;9.23;;;2.92;;
24547;SDS011;12713;51.624;4.924;2022-09-14T02:25:47;10.02;;;2.78;;
24547;SDS011;12713;51.624;4.924;2022-09-14T02:28:14;4.00;;;2.30;;
24547;SDS011;12713;51.624;4.924;2022-09-14T02:33:27;7.68;;;3.17;;
24547;SDS011;12713;51.624;4.924;2022-09-14T02:35:55;11.50;;;3.33;;
24547;SDS011;12713;51.624;4.924;2022-09-14T02:40:53;7.30;;;3.38;;
24547;SDS011;12713;51.624;4.924;2022-09-14T02:43:36;8.48;;;3.08;;
24547;SDS011;12713;51.624;4.924;2022-09-14T02:51:08;7.50;;;2.50;;
24547;SDS011;12713;51.624;4.924;2022-09-14T02:53:41;7.88;;;3.15;;
24547;SDS011;12713;51.624;4.924;2022-09-14T02:56:08;4.50;;;2.75;;
24547;SDS011;12713;51.624;4.924;2022-09-14T02:58:36;6.18;;;2.30;;
24547;SDS011;12713;51.624;4.924;2022-09-14T03:01:03;7.13;;;2.92;;
24547;SDS011;12713;51.624;4.924;2022-09-14T03:03:29;5.90;;;2.30;;
24547;SDS011;12713;51.624;4.924;2022-09-14T03:05:56;7.80;;;2.90;;
24547;SDS011;12713;51.624;4.924;2022-09-14T03:08:22;9.98;;;2.83;;
24547;SDS011;12713;51.624;4.924;2022-09-14T03:10:48;11.48;;;2.90;;
24547;SDS011;12713;51.624;4.924;2022-09-14T03:13:15;6.25;;;3.08;;
24547;SDS011;12713;51.624;4.924;2022-09-14T03:15:41;5.50;;;2.40;;
24547;SDS011;12713;51.624;4.924;2022-09-14T03:18:07;8.23;;;3.17;;
24547;SDS011;12713;51.624;4.924;2022-09-14T03:20:33;6.40;;;2.85;;
24547;SDS011;12713;51.624;4.924;2022-09-14T03:22:59;8.57;;;2.65;;
24547;SDS011;12713;51.624;4.924;2022-09-14T03:25:26;7.50;;;3.05;;
24547;SDS011;12713;51.624;4.924;2022-09-14T03:27:53;5.63;;;2.30;;
24547;SDS011;12713;51.624;4.924;2022-09-14T03:30:19;5.40;;;2.47;;
24547;SDS011;12713;51.624;4.924;2022-09-14T03:32:45;6.78;;;2.78;;
24547;SDS011;12713;51.624;4.924;2022-09-14T03:35:13;5.47;;;2.28;;
24547;SDS011;12713;51.624;4.924;2022-09-14T03:37:40;9.43;;;2.80;;
24547;SDS011;12713;51.624;4.924;2022-09-14T03:40:06;9.35;;;2.88;;
24547;SDS011;12713;51.624;4.924;2022-09-14T03:42:33;8.70;;;2.60;;
24547;SDS011;12713;51.624;4.924;2022-09-14T03:44:59;5.43;;;2.40;;
24547;SDS011;12713;51.624;4.924;2022-09-14T03:47:25;4.68;;;2.45;;
24547;SDS011;12713;51.624;4.924;2022-09-14T03:49:51;7.55;;;2.95;;
24547;SDS011;12713;51.624;4.924;2022-09-14T03:52:18;9.65;;;2.78;;
24547;SDS011;12713;51.624;4.924;2022-09-14T03:54:44;14.57;;;3.63;;
24547;SDS011;12713;51.624;4.924;2022-09-14T03:57:10;6.72;;;2.60;;
24547;SDS011;12713;51.624;4.924;2022-09-14T03:59:36;8.73;;;2.42;;
24547;SDS011;12713;51.624;4.924;2022-09-14T04:02:02;9.43;;;2.83;;
24547;SDS011;12713;51.624;4.924;2022-09-14T04:04:28;9.38;;;2.45;;
24547;SDS011;12713;51.624;4.924;2022-09-14T04:06:54;11.77;;;3.30;;
24547;SDS011;12713;51.624;4.924;2022-09-14T04:09:20;7.35;;;2.58;;
24547;SDS011;12713;51.624;4.924;2022-09-14T04:11:46;6.57;;;2.35;;
24547;SDS011;12713;51.624;4.924;2022-09-14T04:14:12;6.75;;;2.40;;
24547;SDS011;12713;51.624;4.924;2022-09-14T04:16:40;7.47;;;2.70;;
24547;SDS011;12713;51.624;4.924;2022-09-14T04:19:09;8.55;;;3.05;;
24547;SDS011;12713;51.624;4.924;2022-09-14T04:21:35;7.35;;;2.15;;
24547;SDS011;12713;51.624;4.924;2022-09-14T04:24:01;8.38;;;2.70;;
24547;SDS011;12713;51.624;4.924;2022-09-14T04:26:27;10.32;;;2.60;;
24547;SDS011;12713;51.624;4.924;2022-09-14T04:28:54;13.77;;;2.88;;
24547;SDS011;12713;51.624;4.924;2022-09-14T04:31:20;7.20;;;2.78;;
24547;SDS011;12713;51.624;4.924;2022-09-14T04:33:46;7.38;;;2.30;;
24547;SDS011;12713;51.624;4.924;2022-09-14T04:36:16;4.82;;;2.75;;
24547;SDS011;12713;51.624;4.924;2022-09-14T04:38:42;8.05;;;2.67;;
24547;SDS011;12713;51.624;4.924;2022-09-14T04:41:18;9.02;;;2.70;;
24547;SDS011;12713;51.624;4.924;2022-09-14T04:43:47;6.07;;;2.60;;
24547;SDS011;12713;51.624;4.924;2022-09-14T04:46:18;6.28;;;2.80;;
24547;SDS011;12713;51.624;4.924;2022-09-14T04:48:44;9.30;;;2.35;;
24547;SDS011;12713;51.624;4.924;2022-09-14T04:51:11;4.93;;;2.10;;
24547;SDS011;12713;51.624;4.924;2022-09-14T04:53:40;9.10;;;2.63;;
24547;SDS011;12713;51.624;4.924;2022-09-14T04:56:07;6.78;;;2.47;;
24547;SDS011;12713;51.624;4.924;2022-09-14T04:58:34;5.32;;;2.35;;
24547;SDS011;12713;51.624;4.924;2022-09-14T05:01:04;7.00;;;2.58;;
24547;SDS011;12713;51.624;4.924;2022-09-14T05:03:30;7.35;;;2.97;;
24547;SDS011;12713;51.624;4.924;2022-09-14T05:06:02;7.38;;;3.28;;
24547;SDS011;12713;51.624;4.924;2022-09-14T05:08:29;7.05;;;2.30;;
24547;SDS011;12713;51.624;4.924;2022-09-14T05:10:55;9.15;;;2.65;;
24547;SDS011;12713;51.624;4.924;2022-09-14T05:13:21;5.63;;;2.75;;
24547;SDS011;12713;51.624;4.924;2022-09-14T05:15:48;8.15;;;2.75;;
24547;SDS011;12713;51.624;4.924;2022-09-14T05:18:14;4.38;;;2.70;;
24547;SDS011;12713;51.624;4.924;2022-09-14T05:20:40;11.30;;;3.00;;
24547;SDS011;12713;51.624;4.924;2022-09-14T05:23:06;8.45;;;2.70;;
24547;SDS011;12713;51.624;4.924;2022-09-14T05:25:32;4.82;;;2.47;;
24547;SDS011;12713;51.624;4.924;2022-09-14T05:27:58;7.47;;;2.75;;
24547;SDS011;12713;51.624;4.924;2022-09-14T05:30:24;7.50;;;3.08;;
24547;SDS011;12713;51.624;4.924;2022-09-14T05:32:50;8.10;;;2.70;;
24547;SDS011;12713;51.624;4.924;2022-09-14T05:35:16;8.13;;;3.28;;
24547;SDS011;12713;51.624;4.924;2022-09-14T05:37:42;6.68;;;3.30;;
24547;SDS011;12713;51.624;4.924;2022-09-14T05:40:08;7.78;;;3.15;;
24547;SDS011;12713;51.624;4.924;2022-09-14T05:42:34;7.93;;;3.10;;
24547;SDS011;12713;51.624;4.924;2022-09-14T05:45:00;7.53;;;2.70;;
24547;SDS011;12713;51.624;4.924;2022-09-14T05:47:29;8.88;;;3.17;;
24547;SDS011;12713;51.624;4.924;2022-09-14T05:49:55;8.80;;;3.10;;
24547;SDS011;12713;51.624;4.924;2022-09-14T05:52:22;9.25;;;3.35;;
24547;SDS011;12713;51.624;4.924;2022-09-14T05:54:48;6.18;;;3.00;;
24547;SDS011;12713;51.624;4.924;2022-09-14T05:57:14;6.38;;;3.00;;
24547;SDS011;12713;51.624;4.924;2022-09-14T05:59:40;10.25;;;3.33;;
24547;SDS011;12713;51.624;4.924;2022-09-14T06:02:07;7.80;;;2.92;;
24547;SDS011;12713;51.624;4.924;2022-09-14T06:04:33;9.13;;;3.33;;
24547;SDS011;12713;51.624;4.924;2022-09-14T06:07:00;8.35;;;3.03;;
24547;SDS011;12713;51.624;4.924;2022-09-14T06:09:26;8.23;;;3.28;;
24547;SDS011;12713;51.624;4.924;2022-09-14T06:11:53;8.93;;;2.75;;
24547;SDS011;12713;51.624;4.924;2022-09-14T06:14:19;7.03;;;3.20;;
24547;SDS011;12713;51.624;4.924;2022-09-14T06:16:45;6.10;;;2.60;;
24547;SDS011;12713;51.624;4.924;2022-09-14T06:19:11;7.95;;;3.22;;
24547;SDS011;12713;51.624;4.924;2022-09-14T06:21:39;7.05;;;2.65;;
24547;SDS011;12713;51.624;4.924;2022-09-14T06:24:05;5.22;;;3.38;;
24547;SDS011;12713;51.624;4.924;2022-09-14T06:26:31;8.50;;;2.85;;
24547;SDS011;12713;51.624;4.924;2022-09-14T06:28:57;8.43;;;2.92;;
24547;SDS011;12713;51.624;4.924;2022-09-14T06:31:23;8.50;;;3.20;;
24547;SDS011;12713;51.624;4.924;2022-09-14T06:33:49;10.98;;;3.25;;
24547;SDS011;12713;51.624;4.924;2022-09-14T06:36:20;7.63;;;3.30;;
24547;SDS011;12713;51.624;4.924;2022-09-14T06:38:47;8.93;;;4.20;;
24547;SDS011;12713;51.624;4.924;2022-09-14T06:41:14;7.35;;;3.25;;
24547;SDS011;12713;51.624;4.924;2022-09-14T06:43:44;6.63;;;2.50;;
24547;SDS011;12713;51.624;4.924;2022-09-14T06:46:14;9.57;;;3.80;;
24547;SDS011;12713;51.624;4.924;2022-09-14T06:48:44;11.60;;;4.00;;
24547;SDS011;12713;51.624;4.924;2022-09-14T06:53:37;8.27;;;3.22;;
24547;SDS011;12713;51.624;4.924;2022-09-14T06:56:03;9.50;;;2.60;;
24547;SDS011;12713;51.624;4.924;2022-09-14T06:58:29;8.15;;;3.40;;
24547;SDS011;12713;51.624;4.924;2022-09-14T07:00:59;7.40;;;2.95;;
24547;SDS011;12713;51.624;4.924;2022-09-14T07:03:25;6.60;;;3.63;;
24547;SDS011;12713;51.624;4.924;2022-09-14T07:05:51;5.90;;;3.65;;
24547;SDS011;12713;51.624;4.924;2022-09-14T07:08:17;5.82;;;3.42;;
24547;SDS011;12713;51.624;4.924;2022-09-14T07:10:43;7.30;;;3.60;;
24547;SDS011;12713;51.624;4.924;2022-09-14T07:13:19;6.70;;;2.65;;
24547;SDS011;12713;51.624;4.924;2022-09-14T07:15:49;7.95;;;3.85;;
24547;SDS011;12713;51.624;4.924;2022-09-14T07:18:15;7.05;;;3.22;;
24547;SDS011;12713;51.624;4.924;2022-09-14T07:20:41;9.55;;;4.70;;
24547;SDS011;12713;51.624;4.924;2022-09-14T07:23:07;6.63;;;3.45;;
24547;SDS011;12713;51.624;4.924;2022-09-14T07:25:33;8.35;;;4.03;;
24547;SDS011;12713;51.624;4.924;2022-09-14T07:27:59;10.07;;;3.55;;
24547;SDS011;12713;51.624;4.924;2022-09-14T07:30:26;6.68;;;3.95;;
24547;SDS011;12713;51.624;4.924;2022-09-14T07:32:52;5.53;;;2.83;;
24547;SDS011;12713;51.624;4.924;2022-09-14T07:35:18;7.05;;;3.50;;
24547;SDS011;12713;51.624;4.924;2022-09-14T07:37:44;9.63;;;3.85;;
24547;SDS011;12713;51.624;4.924;2022-09-14T07:40:11;13.07;;;3.42;;
24547;SDS011;12713;51.624;4.924;2022-09-14T07:42:37;8.20;;;3.65;;
24547;SDS011;12713;51.624;4.924;2022-09-14T07:45:04;6.30;;;3.00;;
24547;SDS011;12713;51.624;4.924;2022-09-14T07:47:30;10.68;;;3.05;;
24547;SDS011;12713;51.624;4.924;2022-09-14T07:49:56;11.45;;;4.13;;
24547;SDS011;12713;51.624;4.924;2022-09-14T07:52:22;8.98;;;3.83;;
24547;SDS011;12713;51.624;4.924;2022-09-14T07:54:48;7.68;;;3.65;;
24547;SDS011;12713;51.624;4.924;2022-09-14T07:57:15;11.70;;;3.92;;
24547;SDS011;12713;51.624;4.924;2022-09-14T07:59:42;12.05;;;3.70;;
24547;SDS011;12713;51.624;4.924;2022-09-14T08:02:09;12.98;;;4.18;;
24547;SDS011;12713;51.624;4.924;2022-09-14T08:04:35;7.75;;;3.90;;
24547;SDS011;12713;51.624;4.924;2022-09-14T08:07:03;7.45;;;3.45;;
24547;SDS011;12713;51.624;4.924;2022-09-14T08:09:29;8.35;;;3.63;;
24547;SDS011;12713;51.624;4.924;2022-09-14T08:11:56;7.80;;;3.75;;
24547;SDS011;12713;51.624;4.924;2022-09-14T08:14:22;8.65;;;3.13;;
24547;SDS011;12713;51.624;4.924;2022-09-14T08:16:48;9.32;;;3.47;;
24547;SDS011;12713;51.624;4.924;2022-09-14T08:19:14;9.35;;;3.60;;
24547;SDS011;12713;51.624;4.924;2022-09-14T08:21:41;11.15;;;4.38;;
24547;SDS011;12713;51.624;4.924;2022-09-14T08:24:10;8.52;;;4.13;;
24547;SDS011;12713;51.624;4.924;2022-09-14T08:26:36;9.40;;;3.47;;
24547;SDS011;12713;51.624;4.924;2022-09-14T08:29:04;6.13;;;3.10;;
24547;SDS011;12713;51.624;4.924;2022-09-14T08:31:34;9.15;;;3.88;;
24547;SDS011;12713;51.624;4.924;2022-09-14T08:34:01;4.97;;;3.13;;
24547;SDS011;12713;51.624;4.924;2022-09-14T08:36:29;12.43;;;3.50;;
24547;SDS011;12713;51.624;4.924;2022-09-14T08:38:55;9.93;;;4.22;;
24547;SDS011;12713;51.624;4.924;2022-09-14T08:41:29;12.00;;;4.07;;
24547;SDS011;12713;51.624;4.924;2022-09-14T08:44:39;15.32;;;4.93;;
24547;SDS011;12713;51.624;4.924;2022-09-14T08:46:47;6.15;;;3.25;;
24547;SDS011;12713;51.624;4.924;2022-09-14T08:52:00;9.77;;;4.18;;
24547;SDS011;12713;51.624;4.924;2022-09-14T08:54:26;6.43;;;3.83;;
24547;SDS011;12713;51.624;4.924;2022-09-14T08:57:01;6.97;;;3.67;;
24547;SDS011;12713;51.624;4.924;2022-09-14T09:09:47;4.75;;;3.13;;
24547;SDS011;12713;51.624;4.924;2022-09-14T09:12:14;9.05;;;4.43;;
24547;SDS011;12713;51.624;4.924;2022-09-14T09:19:53;9.88;;;4.50;;
24547;SDS011;12713;51.624;4.924;2022-09-14T09:22:21;6.75;;;3.58;;
24547;SDS011;12713;51.624;4.924;2022-09-14T09:24:49;6.70;;;3.20;;
24547;SDS011;12713;51.624;4.924;2022-09-14T09:27:16;15.15;;;5.90;;
24547;SDS011;12713;51.624;4.924;2022-09-14T09:29:42;9.85;;;3.90;;
24547;SDS011;12713;51.624;4.924;2022-09-14T09:32:16;14.38;;;5.93;;
24547;SDS011;12713;51.624;4.924;2022-09-14T09:34:42;16.02;;;6.65;;
24547;SDS011;12713;51.624;4.924;2022-09-14T09:37:12;9.70;;;4.95;;
24547;SDS011;12713;51.624;4.924;2022-09-14T09:39:39;11.15;;;4.85;;
24547;SDS011;12713;51.624;4.924;2022-09-14T09:42:06;12.23;;;5.53;;
24547;SDS011;12713;51.624;4.924;2022-09-14T09:47:23;11.88;;;5.28;;
24547;SDS011;12713;51.624;4.924;2022-09-14T09:49:55;12.00;;;5.82;;
24547;SDS011;12713;51.624;4.924;2022-09-14T09:52:22;6.20;;;3.92;;
24547;SDS011;12713;51.624;4.924;2022-09-14T09:54:49;9.63;;;6.75;;
24547;SDS011;12713;51.624;4.924;2022-09-14T09:57:25;12.60;;;6.25;;
24547;SDS011;12713;51.624;4.924;2022-09-14T09:59:52;11.57;;;6.15;;
24547;SDS011;12713;51.624;4.924;2022-09-14T10:02:32;9.65;;;4.80;;
24547;SDS011;12713;51.624;4.924;2022-09-14T10:05:00;8.02;;;5.00;;
24547;SDS011;12713;51.624;4.924;2022-09-14T10:07:27;16.63;;;6.60;;
24547;SDS011;12713;51.624;4.924;2022-09-14T10:10:07;7.03;;;5.40;;
24547;SDS011;12713;51.624;4.924;2022-09-14T10:12:35;10.95;;;5.50;;
24547;SDS011;12713;51.624;4.924;2022-09-14T10:18:05;8.07;;;6.07;;
24547;SDS011;12713;51.624;4.924;2022-09-14T10:20:32;9.40;;;5.82;;
24547;SDS011;12713;51.624;4.924;2022-09-14T10:23:13;8.95;;;4.88;;
24547;SDS011;12713;51.624;4.924;2022-09-14T10:25:39;6.82;;;4.22;;
24547;SDS011;12713;51.624;4.924;2022-09-14T10:28:15;10.05;;;5.97;;
24547;SDS011;12713;51.624;4.924;2022-09-14T10:30:44;10.32;;;4.85;;
24547;SDS011;12713;51.624;4.924;2022-09-14T10:33:13;10.77;;;5.35;;
24547;SDS011;12713;51.624;4.924;2022-09-14T10:38:11;7.18;;;5.60;;
24547;SDS011;12713;51.624;4.924;2022-09-14T10:40:41;11.48;;;6.28;;
24547;SDS011;12713;51.624;4.924;2022-09-14T10:43:13;9.75;;;6.65;;
24547;SDS011;12713;51.624;4.924;2022-09-14T10:45:41;9.57;;;5.72;;
24547;SDS011;12713;51.624;4.924;2022-09-14T10:48:19;10.90;;;6.00;;
24547;SDS011;12713;51.624;4.924;2022-09-14T10:56:03;9.48;;;4.72;;
24547;SDS011;12713;51.624;4.924;2022-09-14T10:59:15;12.40;;;5.00;;
24547;SDS011;12713;51.624;4.924;2022-09-14T11:03:56;8.73;;;4.95;;
24547;SDS011;12713;51.624;4.924;2022-09-14T11:06:31;10.25;;;5.22;;
24547;SDS011;12713;51.624;4.924;2022-09-14T11:08:59;6.72;;;3.67;;
24547;SDS011;12713;51.624;4.924;2022-09-14T11:16:45;9.05;;;5.07;;
24547;SDS011;12713;51.624;4.924;2022-09-14T11:27:06;7.32;;;3.40;;
24547;SDS011;12713;51.624;4.924;2022-09-14T11:29:42;5.22;;;3.50;;
24547;SDS011;12713;51.624;4.924;2022-09-14T11:32:19;4.82;;;3.05;;
24547;SDS011;12713;51.624;4.924;2022-09-14T11:34:56;8.18;;;3.13;;
24547;SDS011;12713;51.624;4.924;2022-09-14T11:43:03;5.38;;;4.00;;
24547;SDS011;12713;51.624;4.924;2022-09-14T11:45:23;8.10;;;4.30;;
24547;SDS011;12713;51.624;4.924;2022-09-14T11:47:56;7.93;;;4.65;;
24547;SDS011;12713;51.624;4.924;2022-09-14T11:50:24;8.10;;;4.25;;
24547;SDS011;12713;51.624;4.924;2022-09-14T11:52:55;5.95;;;4.00;;
24547;SDS011;12713;51.624;4.924;2022-09-14T11:55:25;9.35;;;3.47;;
24547;SDS011;12713;51.624;4.924;2022-09-14T11:57:51;8.77;;;2.88;;
24547;SDS011;12713;51.624;4.924;2022-09-14T12:03:00;5.63;;;2.88;;
24547;SDS011;12713;51.624;4.924;2022-09-14T12:05:28;4.30;;;1.20;;
24547;SDS011;12713;51.624;4.924;2022-09-14T12:08:02;6.28;;;1.40;;
24547;SDS011;12713;51.624;4.924;2022-09-14T12:10:28;3.58;;;1.15;;
24547;SDS011;12713;51.624;4.924;2022-09-14T12:15:34;3.90;;;1.60;;
24547;SDS011;12713;51.624;4.924;2022-09-14T12:31:06;5.27;;;1.60;;
24547;SDS011;12713;51.624;4.924;2022-09-14T12:35:59;5.43;;;1.75;;
24547;SDS011;12713;51.624;4.924;2022-09-14T12:53:38;4.15;;;2.08;;
24547;SDS011;12713;51.624;4.924;2022-09-14T12:56:11;6.15;;;1.63;;
24547;SDS011;12713;51.624;4.924;2022-09-14T12:58:42;3.00;;;1.90;;
24547;SDS011;12713;51.624;4.924;2022-09-14T13:01:16;3.90;;;2.00;;
24547;SDS011;12713;51.624;4.924;2022-09-14T13:03:50;4.85;;;1.80;;
24547;SDS011;12713;51.624;4.924;2022-09-14T13:06:18;3.65;;;1.58;;
24547;SDS011;12713;51.624;4.924;2022-09-14T13:08:49;5.68;;;2.33;;
24547;SDS011;12713;51.624;4.924;2022-09-14T13:11:26;2.83;;;1.20;;
24547;SDS011;12713;51.624;4.924;2022-09-14T13:13:54;3.60;;;1.52;;
24547;SDS011;12713;51.624;4.924;2022-09-14T13:16:23;3.35;;;1.75;;
24547;SDS011;12713;51.624;4.924;2022-09-14T13:18:58;3.00;;;1.75;;
24547;SDS011;12713;51.624;4.924;2022-09-14T13:21:24;3.17;;;1.40;;
24547;SDS011;12713;51.624;4.924;2022-09-14T13:23:51;3.03;;;1.35;;
24547;SDS011;12713;51.624;4.924;2022-09-14T13:26:28;3.63;;;1.55;;
24547;SDS011;12713;51.624;4.924;2022-09-14T13:28:57;3.03;;;1.58;;
24547;SDS011;12713;51.624;4.924;2022-09-14T13:31:27;3.85;;;1.70;;
24547;SDS011;12713;51.624;4.924;2022-09-14T13:33:53;4.75;;;1.98;;
24547;SDS011;12713;51.624;4.924;2022-09-14T13:36:21;6.53;;;1.60;;
24547;SDS011;12713;51.624;4.924;2022-09-14T13:38:48;3.95;;;2.13;;
24547;SDS011;12713;51.624;4.924;2022-09-14T13:41:16;3.08;;;2.03;;
24547;SDS011;12713;51.624;4.924;2022-09-14T13:43:43;6.05;;;3.17;;
24547;SDS011;12713;51.624;4.924;2022-09-14T13:46:11;3.63;;;1.58;;
24547;SDS011;12713;51.624;4.924;2022-09-14T13:48:38;2.88;;;1.80;;
24547;SDS011;12713;51.624;4.924;2022-09-14T13:51:05;7.15;;;2.90;;
24547;SDS011;12713;51.624;4.924;2022-09-14T13:53:38;5.78;;;2.00;;
24547;SDS011;12713;51.624;4.924;2022-09-14T13:56:21;4.30;;;2.10;;
24547;SDS011;12713;51.624;4.924;2022-09-14T13:58:48;2.63;;;2.28;;
24547;SDS011;12713;51.624;4.924;2022-09-14T14:01:25;5.45;;;2.22;;
24547;SDS011;12713;51.624;4.924;2022-09-14T14:03:52;4.88;;;2.63;;
24547;SDS011;12713;51.624;4.924;2022-09-14T14:06:25;3.75;;;3.03;;
24547;SDS011;12713;51.624;4.924;2022-09-14T14:11:31;4.28;;;2.67;;
24547;SDS011;12713;51.624;4.924;2022-09-14T14:19:28;6.93;;;2.97;;
24547;SDS011;12713;51.624;4.924;2022-09-14T14:24:39;4.93;;;3.03;;
24547;SDS011;12713;51.624;4.924;2022-09-14T14:27:17;4.25;;;2.92;;
24547;SDS011;12713;51.624;4.924;2022-09-14T14:29:46;7.65;;;3.55;;
24547;SDS011;12713;51.624;4.924;2022-09-14T14:32:12;4.72;;;3.15;;
24547;SDS011;12713;51.624;4.924;2022-09-14T14:34:38;5.15;;;3.28;;
24547;SDS011;12713;51.624;4.924;2022-09-14T14:37:04;10.38;;;4.85;;
24547;SDS011;12713;51.624;4.924;2022-09-14T14:39:30;4.18;;;3.25;;
24547;SDS011;12713;51.624;4.924;2022-09-14T14:41:56;6.20;;;3.70;;
24547;SDS011;12713;51.624;4.924;2022-09-14T14:44:23;6.57;;;3.90;;
24547;SDS011;12713;51.624;4.924;2022-09-14T14:46:52;6.25;;;4.38;;
24547;SDS011;12713;51.624;4.924;2022-09-14T14:49:18;5.80;;;3.78;;
24547;SDS011;12713;51.624;4.924;2022-09-14T14:51:44;4.15;;;3.28;;
24547;SDS011;12713;51.624;4.924;2022-09-14T14:54:11;7.55;;;4.53;;
24547;SDS011;12713;51.624;4.924;2022-09-14T14:56:41;5.88;;;4.50;;
24547;SDS011;12713;51.624;4.924;2022-09-14T15:01:46;7.20;;;5.00;;
24547;SDS011;12713;51.624;4.924;2022-09-14T15:04:12;7.93;;;5.20;;
24547;SDS011;12713;51.624;4.924;2022-09-14T15:06:39;6.35;;;4.20;;
24547;SDS011;12713;51.624;4.924;2022-09-14T15:09:06;9.38;;;5.03;;
24547;SDS011;12713;51.624;4.924;2022-09-14T15:11:37;7.45;;;4.65;;
24547;SDS011;12713;51.624;4.924;2022-09-14T15:14:05;9.00;;;4.82;;
24547;SDS011;12713;51.624;4.924;2022-09-14T15:16:31;4.55;;;3.47;;
24547;SDS011;12713;51.624;4.924;2022-09-14T15:18:57;10.57;;;4.53;;
24547;SDS011;12713;51.624;4.924;2022-09-14T15:21:23;8.43;;;5.38;;
24547;SDS011;12713;51.624;4.924;2022-09-14T15:23:49;17.60;;;5.72;;
24547;SDS011;12713;51.624;4.924;2022-09-14T15:26:15;6.82;;;4.10;;
24547;SDS011;12713;51.624;4.924;2022-09-14T15:28:41;8.55;;;6.40;;
24547;SDS011;12713;51.624;4.924;2022-09-14T15:31:07;11.05;;;6.68;;
24547;SDS011;12713;51.624;4.924;2022-09-14T15:33:33;18.33;;;7.63;;
24547;SDS011;12713;51.624;4.924;2022-09-14T15:35:59;9.45;;;6.57;;
24547;SDS011;12713;51.624;4.924;2022-09-14T15:38:25;10.63;;;6.53;;
24547;SDS011;12713;51.624;4.924;2022-09-14T15:40:51;9.98;;;6.68;;
24547;SDS011;12713;51.624;4.924;2022-09-14T15:43:17;13.20;;;8.27;;
24547;SDS011;12713;51.624;4.924;2022-09-14T15:45:43;10.10;;;7.38;;
24547;SDS011;12713;51.624;4.924;2022-09-14T15:48:11;11.38;;;6.25;;
24547;SDS011;12713;51.624;4.924;2022-09-14T15:50:39;11.35;;;6.57;;
24547;SDS011;12713;51.624;4.924;2022-09-14T15:53:05;10.95;;;7.15;;
24547;SDS011;12713;51.624;4.924;2022-09-14T15:55:31;9.77;;;5.93;;
24547;SDS011;12713;51.624;4.924;2022-09-14T15:57:57;16.08;;;6.85;;
24547;SDS011;12713;51.624;4.924;2022-09-14T16:00:24;10.07;;;7.13;;
24547;SDS011;12713;51.624;4.924;2022-09-14T16:02:50;9.07;;;6.35;;
24547;SDS011;12713;51.624;4.924;2022-09-14T16:05:16;7.75;;;5.22;;
24547;SDS011;12713;51.624;4.924;2022-09-14T16:07:43;7.63;;;4.53;;
24547;SDS011;12713;51.624;4.924;2022-09-14T16:10:09;10.00;;;6.95;;
24547;SDS011;12713;51.624;4.924;2022-09-14T16:12:35;9.15;;;6.22;;
24547;SDS011;12713;51.624;4.924;2022-09-14T16:15:01;13.07;;;7.05;;
24547;SDS011;12713;51.624;4.924;2022-09-14T16:17:27;13.30;;;6.28;;
24547;SDS011;12713;51.624;4.924;2022-09-14T16:19:53;10.65;;;6.40;;
24547;SDS011;12713;51.624;4.924;2022-09-14T16:22:19;9.80;;;6.18;;
24547;SDS011;12713;51.624;4.924;2022-09-14T16:24:45;9.70;;;6.88;;
24547;SDS011;12713;51.624;4.924;2022-09-14T16:27:14;10.75;;;5.78;;
24547;SDS011;12713;51.624;4.924;2022-09-14T16:29:40;9.57;;;7.03;;
24547;SDS011;12713;51.624;4.924;2022-09-14T16:32:06;11.40;;;5.45;;
24547;SDS011;12713;51.624;4.924;2022-09-14T16:34:32;15.85;;;7.80;;
24547;SDS011;12713;51.624;4.924;2022-09-14T16:36:58;10.73;;;6.20;;
24547;SDS011;12713;51.624;4.924;2022-09-14T16:39:26;9.60;;;6.10;;
24547;SDS011;12713;51.624;4.924;2022-09-14T16:41:58;12.00;;;7.30;;
24547;SDS011;12713;51.624;4.924;2022-09-14T16:44:25;16.75;;;7.47;;
24547;SDS011;12713;51.624;4.924;2022-09-14T16:46:52;14.98;;;7.50;;
24547;SDS011;12713;51.624;4.924;2022-09-14T16:49:18;13.82;;;7.07;;
24547;SDS011;12713;51.624;4.924;2022-09-14T16:51:44;11.52;;;7.38;;
24547;SDS011;12713;51.624;4.924;2022-09-14T16:54:15;11.73;;;6.78;;
24547;SDS011;12713;51.624;4.924;2022-09-14T16:56:41;11.55;;;7.45;;
24547;SDS011;12713;51.624;4.924;2022-09-14T16:59:08;12.57;;;7.30;;
24547;SDS011;12713;51.624;4.924;2022-09-14T17:01:38;13.07;;;7.30;;
24547;SDS011;12713;51.624;4.924;2022-09-14T17:04:15;13.65;;;7.45;;
24547;SDS011;12713;51.624;4.924;2022-09-14T17:06:42;16.25;;;7.82;;